createdAt,value
2018-09-09T00:01:36.663Z,12.94
2018-09-09T00:04:05.592Z,12.94
2018-09-09T00:06:34.592Z,12.93
2018-09-09T00:09:17.432Z,12.96
2018-09-09T00:11:46.481Z,13.01
2018-09-09T00:14:17.238Z,13.09
2018-09-09T00:16:46.262Z,13.17
2018-09-09T00:19:15.351Z,13.25
2018-09-09T00:21:45.765Z,13.31
2018-09-09T00:24:14.870Z,13.34
2018-09-09T00:26:43.927Z,13.34
2018-09-09T00:29:12.863Z,13.28
2018-09-09T00:31:41.920Z,13.20
2018-09-09T00:34:10.947Z,13.13
2018-09-09T00:36:42.572Z,13.07
2018-09-09T00:39:11.629Z,12.99
2018-09-09T00:41:40.429Z,12.86
2018-09-09T00:44:09.501Z,12.74
2018-09-09T00:46:39.451Z,12.61
2018-09-09T00:49:13.632Z,12.56
2018-09-09T00:51:47.785Z,12.55
2018-09-09T00:54:16.897Z,12.55
2018-09-09T00:56:46.030Z,12.59
2018-09-09T00:59:15.080Z,12.65
2018-09-09T01:01:43.993Z,12.68
2018-09-09T01:04:12.980Z,12.67
2018-09-09T01:06:41.916Z,12.64
2018-09-09T01:09:11.689Z,12.63
2018-09-09T01:11:40.572Z,12.65
2018-09-09T01:14:09.471Z,12.71
2018-09-09T01:16:38.257Z,12.75
2018-09-09T01:19:07.241Z,12.78
2018-09-09T01:21:36.143Z,12.82
2018-09-09T01:24:05.090Z,12.89
2018-09-09T01:26:34.092Z,13.00
2018-09-09T01:29:02.930Z,13.07
2018-09-09T01:31:31.717Z,13.07
2018-09-09T01:34:00.829Z,13.06
2018-09-09T01:36:29.667Z,13.02
2018-09-09T01:38:58.644Z,12.95
2018-09-09T01:41:27.633Z,12.88
2018-09-09T01:43:56.573Z,12.84
2018-09-09T01:46:25.518Z,12.84
2018-09-09T01:48:54.512Z,12.92
2018-09-09T01:51:23.409Z,12.99
2018-09-09T01:53:52.296Z,13.06
2018-09-09T01:56:21.176Z,13.11
2018-09-09T01:58:50.021Z,13.15
2018-09-09T02:01:19.042Z,13.18
2018-09-09T02:03:47.953Z,13.18
2018-09-09T02:06:16.789Z,13.18
2018-09-09T02:08:45.681Z,13.18
2018-09-09T02:11:14.664Z,13.18
2018-09-09T02:13:43.560Z,13.18
2018-09-09T02:16:12.417Z,13.18
2018-09-09T02:18:41.256Z,13.17
2018-09-09T02:21:10.293Z,13.14
2018-09-09T02:23:39.111Z,13.11
2018-09-09T02:26:07.988Z,13.08
2018-09-09T02:28:36.920Z,13.08
2018-09-09T02:31:05.859Z,13.10
2018-09-09T02:33:34.763Z,13.12
2018-09-09T02:36:03.753Z,13.14
2018-09-09T02:38:32.675Z,13.20
2018-09-09T02:41:01.735Z,13.26
2018-09-09T02:43:30.544Z,13.32
2018-09-09T02:45:59.473Z,13.36
2018-09-09T02:48:28.421Z,13.42
2018-09-09T02:50:57.440Z,13.42
2018-09-09T02:53:26.271Z,13.38
2018-09-09T02:55:55.121Z,13.34
2018-09-09T02:58:24.102Z,13.33
2018-09-09T03:00:53.073Z,13.35
2018-09-09T03:03:21.904Z,13.38
2018-09-09T03:05:50.700Z,13.43
2018-09-09T03:08:19.629Z,13.44
2018-09-09T03:10:52.551Z,13.49
2018-09-09T03:13:21.616Z,13.56
2018-09-09T03:15:50.564Z,13.58
2018-09-09T03:18:19.553Z,13.62
2018-09-09T03:20:48.452Z,13.65
2018-09-09T03:23:17.317Z,13.66
2018-09-09T03:25:46.161Z,13.68
2018-09-09T03:28:15.069Z,13.71
2018-09-09T03:30:43.982Z,13.71
2018-09-09T03:33:12.897Z,13.71
2018-09-09T03:35:41.910Z,13.72
2018-09-09T03:38:10.708Z,13.73
2018-09-09T03:40:39.676Z,13.72
2018-09-09T03:43:08.639Z,13.69
2018-09-09T03:45:37.543Z,13.69
2018-09-09T03:48:06.565Z,13.67
2018-09-09T03:50:35.448Z,13.63
2018-09-09T03:53:04.281Z,13.64
2018-09-09T03:55:33.262Z,13.66
2018-09-09T03:58:02.287Z,13.69
2018-09-09T04:00:31.296Z,13.70
2018-09-09T04:03:00.172Z,13.70
2018-09-09T04:05:29.064Z,13.70
2018-09-09T04:07:58.059Z,13.66
2018-09-09T04:10:27.078Z,13.65
2018-09-09T04:12:55.985Z,13.62
2018-09-09T04:15:25.122Z,13.58
2018-09-09T04:17:54.666Z,13.58
2018-09-09T04:20:23.643Z,13.56
2018-09-09T04:22:52.445Z,13.52
2018-09-09T04:25:21.249Z,13.51
2018-09-09T04:27:50.205Z,13.55
2018-09-09T04:30:19.175Z,13.60
2018-09-09T04:32:48.168Z,13.60
2018-09-09T04:35:16.973Z,13.58
2018-09-09T04:37:45.794Z,13.53
2018-09-09T04:40:14.641Z,13.49
2018-09-09T04:42:43.525Z,13.44
2018-09-09T04:45:12.919Z,13.38
2018-09-09T04:47:41.929Z,13.35
2018-09-09T04:50:10.820Z,13.31
2018-09-09T04:52:39.681Z,13.22
2018-09-09T04:55:08.533Z,13.19
2018-09-09T04:57:37.457Z,13.16
2018-09-09T05:00:07.016Z,13.12
2018-09-09T05:02:36.924Z,13.15
2018-09-09T05:05:06.479Z,13.21
2018-09-09T05:07:35.396Z,13.29
2018-09-09T05:10:04.354Z,13.38
2018-09-09T05:12:33.312Z,13.44
2018-09-09T05:15:02.196Z,13.50
2018-09-09T05:17:31.066Z,13.59
2018-09-09T05:20:00.025Z,13.67
2018-09-09T05:22:28.895Z,13.77
2018-09-09T05:24:57.932Z,13.84
2018-09-09T05:27:26.909Z,13.89
2018-09-09T05:29:55.988Z,13.94
2018-09-09T05:32:24.990Z,14.03
2018-09-09T05:34:54.070Z,14.11
2018-09-09T05:37:23.012Z,14.17
2018-09-09T05:39:51.976Z,14.26
2018-09-09T05:42:21.059Z,14.38
2018-09-09T05:44:49.997Z,14.45
2018-09-09T05:47:18.873Z,14.56
2018-09-09T05:49:47.692Z,14.66
2018-09-09T05:52:16.682Z,14.77
2018-09-09T05:54:45.710Z,14.88
2018-09-09T05:57:14.716Z,15.01
2018-09-09T05:59:43.649Z,15.09
2018-09-09T06:02:12.646Z,15.19
2018-09-09T06:04:41.589Z,15.20
2018-09-09T06:07:10.512Z,15.20
2018-09-09T06:09:39.436Z,15.28
2018-09-09T06:12:08.411Z,15.35
2018-09-09T06:14:37.242Z,15.48
2018-09-09T06:17:06.729Z,15.61
2018-09-09T06:19:35.592Z,15.77
2018-09-09T06:22:04.605Z,16.02
2018-09-09T06:24:33.698Z,16.22
2018-09-09T06:27:02.638Z,16.38
2018-09-09T06:29:31.616Z,16.53
2018-09-09T06:32:00.632Z,16.60
2018-09-09T06:34:29.655Z,16.75
2018-09-09T06:36:58.557Z,16.76
2018-09-09T06:39:27.571Z,16.75
2018-09-09T06:41:56.483Z,16.85
2018-09-09T06:44:25.489Z,16.92
2018-09-09T06:46:54.472Z,17.05
2018-09-09T06:49:23.350Z,17.17
2018-09-09T06:51:52.447Z,17.36
2018-09-09T06:54:21.389Z,17.53
2018-09-09T06:56:50.430Z,17.72
2018-09-09T06:59:19.492Z,17.93
2018-09-09T07:01:48.555Z,18.13
2018-09-09T07:04:17.485Z,18.31
2018-09-09T07:06:46.869Z,18.43
2018-09-09T07:09:15.758Z,18.35
2018-09-09T07:11:44.992Z,18.32
2018-09-09T07:14:13.765Z,18.44
2018-09-09T07:16:42.755Z,18.60
2018-09-09T07:19:11.689Z,18.69
2018-09-09T07:21:40.666Z,18.86
2018-09-09T07:24:09.563Z,18.84
2018-09-09T07:26:38.526Z,18.91
2018-09-09T07:29:07.443Z,18.85
2018-09-09T07:31:36.367Z,18.93
2018-09-09T07:34:05.252Z,18.91
2018-09-09T07:36:34.292Z,18.96
2018-09-09T07:39:03.399Z,18.93
2018-09-09T07:41:33.775Z,19.05
2018-09-09T07:44:02.700Z,19.10
2018-09-09T07:46:31.803Z,19.17
2018-09-09T07:49:00.639Z,19.23
2018-09-09T07:51:29.652Z,19.32
2018-09-09T07:53:58.631Z,19.32
2018-09-09T07:56:27.582Z,19.40
2018-09-09T07:58:56.624Z,19.38
2018-09-09T08:01:25.652Z,19.30
2018-09-09T08:03:54.646Z,19.12
2018-09-09T08:06:23.729Z,19.11
2018-09-09T08:08:53.157Z,19.21
2018-09-09T08:11:22.190Z,19.49
2018-09-09T08:13:51.447Z,19.86
2018-09-09T08:16:20.251Z,20.28
2018-09-09T08:18:49.757Z,20.55
2018-09-09T08:21:18.914Z,20.76
2018-09-09T08:23:48.015Z,20.99
2018-09-09T08:26:17.060Z,21.13
2018-09-09T08:28:46.223Z,21.16
2018-09-09T08:31:15.406Z,21.24
2018-09-09T08:33:44.536Z,21.40
2018-09-09T08:36:14.088Z,21.54
2018-09-09T08:38:43.290Z,21.67
2018-09-09T08:41:12.379Z,21.58
2018-09-09T08:43:41.477Z,21.09
2018-09-09T08:46:10.532Z,20.78
2018-09-09T08:48:39.700Z,20.56
2018-09-09T08:51:08.993Z,20.41
2018-09-09T08:53:38.112Z,20.43
2018-09-09T08:56:07.283Z,20.46
2018-09-09T08:58:36.405Z,20.48
2018-09-09T09:01:05.497Z,20.43
2018-09-09T09:03:34.554Z,20.47
2018-09-09T09:06:03.648Z,20.78
2018-09-09T09:08:32.811Z,20.72
2018-09-09T09:11:01.966Z,20.75
2018-09-09T09:13:31.120Z,20.93
2018-09-09T09:16:00.189Z,21.26
2018-09-09T09:18:29.377Z,21.30
2018-09-09T09:20:58.585Z,21.53
2018-09-09T09:23:27.812Z,21.66
2018-09-09T09:25:56.889Z,21.66
2018-09-09T09:28:25.982Z,21.49
2018-09-09T09:30:55.095Z,21.38
2018-09-09T09:33:24.335Z,21.43
2018-09-09T09:35:54.491Z,21.75
2018-09-09T09:38:24.048Z,21.87
2018-09-09T09:40:53.620Z,21.64
2018-09-09T09:43:24.607Z,21.79
2018-09-09T09:45:53.712Z,21.89
2018-09-09T09:48:22.754Z,22.00
2018-09-09T09:50:51.671Z,21.95
2018-09-09T09:53:20.680Z,21.95
2018-09-09T09:55:49.490Z,21.98
2018-09-09T09:58:18.428Z,21.93
2018-09-09T10:00:52.593Z,21.87
2018-09-09T10:03:21.713Z,21.96
2018-09-09T10:05:50.548Z,22.13
2018-09-09T10:08:19.545Z,21.87
2018-09-09T10:10:48.500Z,21.64
2018-09-09T10:13:17.675Z,21.75
2018-09-09T10:15:46.751Z,21.51
2018-09-09T10:18:15.663Z,21.85
2018-09-09T10:20:44.629Z,22.29
2018-09-09T10:23:13.650Z,22.88
2018-09-09T10:25:42.542Z,23.22
2018-09-09T10:28:11.569Z,23.03
2018-09-09T10:30:40.506Z,23.00
2018-09-09T10:33:09.684Z,23.17
2018-09-09T10:35:38.582Z,23.14
2018-09-09T10:38:07.559Z,23.11
2018-09-09T10:40:37.001Z,22.99
2018-09-09T10:43:10.038Z,22.78
2018-09-09T10:45:38.996Z,22.17
2018-09-09T10:48:08.032Z,21.95
2018-09-09T10:50:37.033Z,21.86
2018-09-09T10:53:06.324Z,22.06
2018-09-09T10:55:35.450Z,22.31
2018-09-09T10:58:04.485Z,22.67
2018-09-09T11:00:34.681Z,23.27
2018-09-09T11:03:03.709Z,23.54
2018-09-09T11:05:32.696Z,23.87
2018-09-09T11:08:01.632Z,23.97
2018-09-09T11:10:30.764Z,24.15
2018-09-09T11:13:03.192Z,24.70
2018-09-09T11:15:31.995Z,25.00
2018-09-09T11:18:00.990Z,25.28
2018-09-09T11:20:29.965Z,25.20
2018-09-09T11:22:58.969Z,24.52
2018-09-09T11:25:27.942Z,24.62
2018-09-09T11:27:56.824Z,25.01
2018-09-09T11:30:25.782Z,25.15
2018-09-09T11:32:54.826Z,24.77
2018-09-09T11:35:23.823Z,24.58
2018-09-09T11:37:52.768Z,24.06
2018-09-09T11:40:21.742Z,24.17
2018-09-09T11:42:50.714Z,23.58
2018-09-09T11:45:19.730Z,23.54
2018-09-09T11:47:48.699Z,23.68
2018-09-09T11:50:17.656Z,23.72
2018-09-09T11:52:46.576Z,23.77
2018-09-09T11:55:15.550Z,23.70
2018-09-09T11:57:44.599Z,23.57
2018-09-09T12:00:13.656Z,23.51
2018-09-09T12:02:42.526Z,23.55
2018-09-09T12:05:11.675Z,23.38
2018-09-09T12:07:40.737Z,23.05
2018-09-09T12:10:09.701Z,22.92
2018-09-09T12:12:38.681Z,22.82
2018-09-09T12:15:07.804Z,23.06
2018-09-09T12:17:36.780Z,23.18
2018-09-09T12:20:06.592Z,23.27
2018-09-09T12:22:35.555Z,23.42
2018-09-09T12:25:04.609Z,23.49
2018-09-09T12:27:33.669Z,23.45
2018-09-09T12:30:02.684Z,23.46
2018-09-09T12:32:31.769Z,23.48
2018-09-09T12:35:00.872Z,23.67
2018-09-09T12:37:29.860Z,23.89
2018-09-09T12:39:58.944Z,23.94
2018-09-09T12:42:27.772Z,23.82
2018-09-09T12:45:01.992Z,23.58
2018-09-09T12:47:36.124Z,23.57
2018-09-09T12:50:05.344Z,23.84
2018-09-09T12:52:34.312Z,23.87
2018-09-09T12:55:03.281Z,24.25
2018-09-09T12:57:32.348Z,24.68
2018-09-09T13:00:01.344Z,25.13
2018-09-09T13:02:30.234Z,25.39
2018-09-09T13:04:59.141Z,25.43
2018-09-09T13:07:28.146Z,25.51
2018-09-09T13:09:57.081Z,25.78
2018-09-09T13:12:29.729Z,27.66
2018-09-09T13:14:58.712Z,30.53
2018-09-09T13:17:27.594Z,31.29
2018-09-09T13:19:56.662Z,32.51
2018-09-09T13:22:25.687Z,33.22
2018-09-09T13:24:54.611Z,33.80
2018-09-09T13:27:23.572Z,33.69
2018-09-09T13:29:52.577Z,34.13
2018-09-09T13:32:21.541Z,34.04
2018-09-09T13:34:50.568Z,33.98
2018-09-09T13:37:19.558Z,35.43
2018-09-09T13:39:48.561Z,37.05
2018-09-09T13:42:17.591Z,37.18
2018-09-09T13:44:46.597Z,36.26
2018-09-09T13:47:15.535Z,36.02
2018-09-09T13:49:44.519Z,36.61
2018-09-09T13:52:13.431Z,36.65
2018-09-09T13:54:42.472Z,35.87
2018-09-09T13:57:11.372Z,35.09
2018-09-09T13:59:40.424Z,35.33
2018-09-09T14:02:09.312Z,36.13
2018-09-09T14:04:38.377Z,34.76
2018-09-09T14:07:07.506Z,35.55
2018-09-09T14:09:36.369Z,35.69
2018-09-09T14:12:05.259Z,36.66
2018-09-09T14:14:34.333Z,36.30
2018-09-09T14:17:03.355Z,36.44
2018-09-09T14:19:32.201Z,36.09
2018-09-09T14:22:01.185Z,34.30
2018-09-09T14:24:30.208Z,32.57
2018-09-09T14:26:59.461Z,31.76
2018-09-09T14:29:28.357Z,31.43
2018-09-09T14:31:57.412Z,32.08
2018-09-09T14:34:26.563Z,32.00
2018-09-09T14:36:55.537Z,31.74
2018-09-09T14:39:24.499Z,31.33
2018-09-09T14:41:53.401Z,30.42
2018-09-09T14:44:22.467Z,29.75
2018-09-09T14:46:51.483Z,29.31
2018-09-09T14:49:20.492Z,29.19
2018-09-09T14:51:49.511Z,28.64
2018-09-09T14:54:19.476Z,28.06
2018-09-09T14:56:48.493Z,27.19
2018-09-09T14:59:17.548Z,27.05
2018-09-09T15:01:46.570Z,27.16
2018-09-09T15:04:15.753Z,27.39
2018-09-09T15:06:44.707Z,27.67
2018-09-09T15:09:13.797Z,27.88
2018-09-09T15:11:42.781Z,27.61
2018-09-09T15:14:11.775Z,27.17
2018-09-09T15:16:40.839Z,26.78
2018-09-09T15:19:09.700Z,26.74
2018-09-09T15:21:38.667Z,27.33
2018-09-09T15:24:07.677Z,28.50
2018-09-09T15:26:36.627Z,30.93
2018-09-09T15:29:05.770Z,32.65
2018-09-09T15:31:34.796Z,33.46
2018-09-09T15:34:03.779Z,33.15
2018-09-09T15:36:32.771Z,32.39
2018-09-09T15:39:01.766Z,31.92
2018-09-09T15:41:30.766Z,32.77
2018-09-09T15:43:59.805Z,33.30
2018-09-09T15:46:29.602Z,33.02
2018-09-09T15:48:58.638Z,32.24
2018-09-09T15:51:27.481Z,31.17
2018-09-09T15:53:56.432Z,30.67
2018-09-09T15:56:25.289Z,30.38
2018-09-09T15:58:54.248Z,30.19
2018-09-09T16:01:23.360Z,30.00
2018-09-09T16:03:52.395Z,29.15
2018-09-09T16:06:21.358Z,28.32
2018-09-09T16:08:50.431Z,27.69
2018-09-09T16:11:19.289Z,27.15
2018-09-09T16:13:48.378Z,26.89
2018-09-09T16:16:17.267Z,26.68
2018-09-09T16:18:46.248Z,26.24
2018-09-09T16:21:15.164Z,25.86
2018-09-09T16:23:44.279Z,25.56
2018-09-09T16:26:13.531Z,25.33
2018-09-09T16:28:42.435Z,25.01
2018-09-09T16:31:12.264Z,24.58
2018-09-09T16:33:41.173Z,24.31
2018-09-09T16:36:10.157Z,24.13
2018-09-09T16:38:39.164Z,23.94
2018-09-09T16:41:08.116Z,23.79
2018-09-09T16:43:37.215Z,23.69
2018-09-09T16:46:06.306Z,23.65
2018-09-09T16:48:35.353Z,24.35
2018-09-09T16:51:04.308Z,24.72
2018-09-09T16:53:33.284Z,24.41
2018-09-09T16:56:02.232Z,24.13
2018-09-09T16:58:31.249Z,23.97
2018-09-09T17:01:00.257Z,23.72
2018-09-09T17:03:29.195Z,23.46
2018-09-09T17:05:58.104Z,23.34
2018-09-09T17:08:26.995Z,23.35
2018-09-09T17:10:55.817Z,23.19
2018-09-09T17:13:24.741Z,22.93
2018-09-09T17:15:53.704Z,22.68
2018-09-09T17:18:22.744Z,22.45
2018-09-09T17:20:51.811Z,22.24
2018-09-09T17:23:20.907Z,22.04
2018-09-09T17:25:51.889Z,21.84
2018-09-09T17:28:20.938Z,21.66
2018-09-09T17:30:49.945Z,21.51
2018-09-09T17:33:18.842Z,21.45
2018-09-09T17:35:47.807Z,21.40
2018-09-09T17:38:16.755Z,21.29
2018-09-09T17:40:45.576Z,21.17
2018-09-09T17:43:14.539Z,21.01
2018-09-09T17:45:46.831Z,20.86
2018-09-09T17:48:15.767Z,20.68
2018-09-09T17:50:44.740Z,20.51
2018-09-09T17:53:13.682Z,20.35
2018-09-09T17:55:42.644Z,20.15
2018-09-09T17:58:11.672Z,19.92
2018-09-09T18:00:40.752Z,19.71
2018-09-09T18:03:09.676Z,19.52
2018-09-09T18:05:38.852Z,19.37
2018-09-09T18:08:07.841Z,19.20
2018-09-09T18:10:36.873Z,19.04
2018-09-09T18:13:05.789Z,18.89
2018-09-09T18:15:34.849Z,18.68
2018-09-09T18:18:03.935Z,18.49
2018-09-09T18:20:32.930Z,18.31
2018-09-09T18:23:01.864Z,18.13
2018-09-09T18:25:30.798Z,17.92
2018-09-09T18:27:59.798Z,17.66
2018-09-09T18:30:28.869Z,17.42
2018-09-09T18:32:57.731Z,17.24
2018-09-09T18:35:26.684Z,17.04
2018-09-09T18:37:55.536Z,16.86
2018-09-09T18:40:24.604Z,16.69
2018-09-09T18:42:53.505Z,16.57
2018-09-09T18:45:22.460Z,16.46
2018-09-09T18:47:51.403Z,16.33
2018-09-09T18:50:20.491Z,16.21
2018-09-09T18:52:49.425Z,16.11
2018-09-09T18:55:18.493Z,15.99
2018-09-09T18:57:47.435Z,15.88
2018-09-09T19:00:16.366Z,15.72
2018-09-09T19:02:45.190Z,15.58
2018-09-09T19:05:14.073Z,15.45
2018-09-09T19:07:42.967Z,15.33
2018-09-09T19:10:12.170Z,15.23
2018-09-09T19:12:41.113Z,15.15
2018-09-09T19:15:10.194Z,15.09
2018-09-09T19:17:39.170Z,15.04
2018-09-09T19:20:08.252Z,14.96
2018-09-09T19:22:37.220Z,14.88
2018-09-09T19:25:06.186Z,14.82
2018-09-09T19:27:35.057Z,14.78
2018-09-09T19:30:04.023Z,14.75
2018-09-09T19:32:32.826Z,14.69
2018-09-09T19:35:01.697Z,14.58
2018-09-09T19:37:30.676Z,14.48
2018-09-09T19:39:59.745Z,14.39
2018-09-09T19:42:28.554Z,14.31
2018-09-09T19:44:59.716Z,14.24
2018-09-09T19:47:28.653Z,14.18
2018-09-09T19:49:57.628Z,14.12
2018-09-09T19:52:26.672Z,14.06
2018-09-09T19:54:55.588Z,13.99
2018-09-09T19:57:24.521Z,13.95
2018-09-09T19:59:53.512Z,13.89
2018-09-09T20:02:22.495Z,13.82
2018-09-09T20:04:51.518Z,13.77
2018-09-09T20:07:20.454Z,13.75
2018-09-09T20:09:49.313Z,13.74
2018-09-09T20:12:18.208Z,13.70
2018-09-09T20:14:47.131Z,13.65
2018-09-09T20:17:16.090Z,13.60
2018-09-09T20:19:45.077Z,13.54
2018-09-09T20:22:14.833Z,13.49
2018-09-09T20:24:43.728Z,13.46
2018-09-09T20:27:12.682Z,13.42
2018-09-09T20:29:41.722Z,13.38
2018-09-09T20:32:10.680Z,13.31
2018-09-09T20:34:39.755Z,13.29
2018-09-09T20:37:08.733Z,13.30
2018-09-09T20:39:37.740Z,13.32
2018-09-09T20:42:06.683Z,13.32
2018-09-09T20:44:35.583Z,13.33
2018-09-09T20:47:04.539Z,13.36
2018-09-09T20:49:33.613Z,13.40
2018-09-09T20:52:02.631Z,13.48
2018-09-09T20:54:31.625Z,13.56
2018-09-09T20:57:00.657Z,13.68
2018-09-09T20:59:29.637Z,13.78
2018-09-09T21:01:58.688Z,13.82
2018-09-09T21:04:27.684Z,13.80
2018-09-09T21:06:56.649Z,13.82
2018-09-09T21:09:25.565Z,13.83
2018-09-09T21:11:54.532Z,13.84
2018-09-09T21:14:23.382Z,13.86
2018-09-09T21:16:52.385Z,13.83
2018-09-09T21:19:21.277Z,13.78
2018-09-09T21:21:50.475Z,13.78
2018-09-09T21:24:19.415Z,13.78
2018-09-09T21:26:48.475Z,13.73
2018-09-09T21:29:17.471Z,13.68
2018-09-09T21:31:46.463Z,13.62
2018-09-09T21:34:15.377Z,13.57
2018-09-09T21:36:44.391Z,13.58
2018-09-09T21:39:13.340Z,13.63
2018-09-09T21:41:42.671Z,13.67
2018-09-09T21:44:11.593Z,13.79
2018-09-09T21:46:40.464Z,13.91
2018-09-09T21:49:09.283Z,13.98
2018-09-09T21:51:38.148Z,13.94
2018-09-09T21:54:07.162Z,13.85
2018-09-09T21:56:36.135Z,13.79
2018-09-09T21:59:05.186Z,13.79
2018-09-09T22:01:39.167Z,13.79
2018-09-09T22:04:08.102Z,13.81
2018-09-09T22:06:37.041Z,13.83
2018-09-09T22:09:08.774Z,13.90
2018-09-09T22:11:38.620Z,13.96
2018-09-09T22:14:07.508Z,14.03
2018-09-09T22:16:36.496Z,14.05
2018-09-09T22:19:05.456Z,14.08
2018-09-09T22:21:34.395Z,14.13
2018-09-09T22:24:03.300Z,14.16
2018-09-09T22:26:32.232Z,14.18
2018-09-09T22:29:01.067Z,14.22
2018-09-09T22:31:29.891Z,14.28
2018-09-09T22:33:58.696Z,14.36
2018-09-09T22:36:27.697Z,14.41
2018-09-09T22:38:56.611Z,14.43
2018-09-09T22:41:25.530Z,14.45
2018-09-09T22:43:54.641Z,14.46
2018-09-09T22:46:23.615Z,14.54
2018-09-09T22:48:52.491Z,14.63
2018-09-09T22:51:21.352Z,14.68
2018-09-09T22:53:50.293Z,14.71
2018-09-09T22:56:19.257Z,14.74
2018-09-09T22:58:48.293Z,14.73
2018-09-09T23:01:17.215Z,14.73
2018-09-09T23:03:46.175Z,14.70
2018-09-09T23:06:15.194Z,14.69
2018-09-09T23:08:44.245Z,14.72
2018-09-09T23:11:13.154Z,14.69
2018-09-09T23:13:42.616Z,14.64
2018-09-09T23:16:11.508Z,14.62
2018-09-09T23:18:40.365Z,14.59
2018-09-09T23:21:09.345Z,14.59
2018-09-09T23:23:38.267Z,14.58
2018-09-09T23:26:07.206Z,14.59
2018-09-09T23:28:36.044Z,14.61
2018-09-09T23:31:04.975Z,14.57
2018-09-09T23:33:33.813Z,14.52
2018-09-09T23:36:02.704Z,14.49
2018-09-09T23:38:31.664Z,14.45
2018-09-09T23:41:00.575Z,14.46
2018-09-09T23:43:29.541Z,14.47
2018-09-09T23:45:58.348Z,14.45
2018-09-09T23:48:27.384Z,14.46
2018-09-09T23:50:56.255Z,14.48
2018-09-09T23:53:25.223Z,14.49
2018-09-09T23:55:54.053Z,14.47
2018-09-09T23:58:23.029Z,14.42
